Terminal Aerodrome Forecast
Issued by NWS

Current Version | Previous Version | Text Only | Print | Product List | Glossary On
Versions: 1 2 3 4 5 6 7 8 9 10 11 12 13 14 15 16 17 18 19 20 21
725
FTUS41 KILN 291406 AAA
TAFLUK
TAF AMD
KLUK 291406Z 2914/3012 03005KT P6SM SCT012 OVC022
      TEMPO 2914/2917 5SM BR BKN015
     FM291700 03005KT P6SM VCSH OVC028
     FM291900 VRB04KT P6SM VCSH SCT028 BKN045
     FM300600 VRB04KT 4SM -SHRA BR OVC018
     FM300900 VRB04KT 4SM -SHRA BR OVC009
      AMD NOT SKED=

USA.gov is the U.S. government's official web portal to all federal, state and local government web resources and services.